sensor_id;sensor_type;location;lat;lon;timestamp;P1;durP1;ratioP1;P2;durP2;ratioP2
67965;SDS011;54749;47.850;9.002;2022-11-15T00:01:29;24.97;;;9.67;;
67965;SDS011;54749;47.850;9.002;2022-11-15T00:04:15;15.73;;;6.93;;
67965;SDS011;54749;47.850;9.002;2022-11-15T00:07:01;14.98;;;6.75;;
67965;SDS011;54749;47.850;9.002;2022-11-15T00:09:46;14.57;;;6.70;;
67965;SDS011;54749;47.850;9.002;2022-11-15T00:12:32;20.38;;;8.18;;
67965;SDS011;54749;47.850;9.002;2022-11-15T00:15:17;16.37;;;6.23;;
67965;SDS011;54749;47.850;9.002;2022-11-15T00:18:03;15.82;;;6.00;;
67965;SDS011;54749;47.850;9.002;2022-11-15T00:20:48;17.15;;;6.70;;
67965;SDS011;54749;47.850;9.002;2022-11-15T00:23:34;15.63;;;6.47;;
67965;SDS011;54749;47.850;9.002;2022-11-15T00:26:19;14.48;;;6.05;;
67965;SDS011;54749;47.850;9.002;2022-11-15T00:29:05;12.17;;;4.87;;
67965;SDS011;54749;47.850;9.002;2022-11-15T00:31:50;11.55;;;4.70;;
67965;SDS011;54749;47.850;9.002;2022-11-15T00:34:36;15.07;;;6.25;;
67965;SDS011;54749;47.850;9.002;2022-11-15T00:37:21;14.40;;;6.03;;
67965;SDS011;54749;47.850;9.002;2022-11-15T00:40:08;14.30;;;5.82;;
67965;SDS011;54749;47.850;9.002;2022-11-15T00:42:54;17.40;;;6.73;;
67965;SDS011;54749;47.850;9.002;2022-11-15T00:45:40;15.85;;;6.82;;
67965;SDS011;54749;47.850;9.002;2022-11-15T00:48:25;17.77;;;7.65;;
67965;SDS011;54749;47.850;9.002;2022-11-15T00:51:11;16.35;;;6.85;;
67965;SDS011;54749;47.850;9.002;2022-11-15T00:53:56;15.55;;;6.40;;
67965;SDS011;54749;47.850;9.002;2022-11-15T00:56:41;20.20;;;9.80;;
67965;SDS011;54749;47.850;9.002;2022-11-15T00:59:26;23.10;;;11.18;;
67965;SDS011;54749;47.850;9.002;2022-11-15T01:02:12;20.77;;;9.85;;
67965;SDS011;54749;47.850;9.002;2022-11-15T01:04:58;19.73;;;8.50;;
67965;SDS011;54749;47.850;9.002;2022-11-15T01:07:44;26.77;;;11.48;;
67965;SDS011;54749;47.850;9.002;2022-11-15T01:10:29;19.07;;;7.93;;
67965;SDS011;54749;47.850;9.002;2022-11-15T01:13:15;23.88;;;9.85;;
67965;SDS011;54749;47.850;9.002;2022-11-15T01:16:06;17.13;;;6.80;;
67965;SDS011;54749;47.850;9.002;2022-11-15T01:18:56;24.13;;;9.85;;
67965;SDS011;54749;47.850;9.002;2022-11-15T01:21:41;27.92;;;9.82;;
67965;SDS011;54749;47.850;9.002;2022-11-15T01:24:26;21.47;;;8.70;;
67965;SDS011;54749;47.850;9.002;2022-11-15T01:27:12;20.00;;;7.78;;
67965;SDS011;54749;47.850;9.002;2022-11-15T01:29:57;21.48;;;6.95;;
67965;SDS011;54749;47.850;9.002;2022-11-15T01:32:42;16.50;;;6.75;;
67965;SDS011;54749;47.850;9.002;2022-11-15T01:35:28;13.48;;;5.70;;
67965;SDS011;54749;47.850;9.002;2022-11-15T01:38:13;11.00;;;4.70;;
67965;SDS011;54749;47.850;9.002;2022-11-15T01:40:59;16.80;;;6.47;;
67965;SDS011;54749;47.850;9.002;2022-11-15T01:43:46;13.93;;;5.85;;
67965;SDS011;54749;47.850;9.002;2022-11-15T01:46:35;13.40;;;4.95;;
67965;SDS011;54749;47.850;9.002;2022-11-15T01:49:22;11.38;;;4.65;;
67965;SDS011;54749;47.850;9.002;2022-11-15T01:52:11;12.87;;;4.53;;
67965;SDS011;54749;47.850;9.002;2022-11-15T01:55:04;11.98;;;5.10;;
67965;SDS011;54749;47.850;9.002;2022-11-15T01:58:00;11.52;;;4.97;;
67965;SDS011;54749;47.850;9.002;2022-11-15T02:00:49;16.35;;;8.48;;
67965;SDS011;54749;47.850;9.002;2022-11-15T02:03:38;15.65;;;6.97;;
67965;SDS011;54749;47.850;9.002;2022-11-15T02:06:29;13.33;;;5.50;;
67965;SDS011;54749;47.850;9.002;2022-11-15T02:09:16;15.25;;;6.68;;
67965;SDS011;54749;47.850;9.002;2022-11-15T02:12:02;22.98;;;10.55;;
67965;SDS011;54749;47.850;9.002;2022-11-15T02:14:50;21.23;;;9.35;;
67965;SDS011;54749;47.850;9.002;2022-11-15T02:26:46;16.40;;;7.80;;
67965;SDS011;54749;47.850;9.002;2022-11-15T02:36:05;22.73;;;10.10;;
67965;SDS011;54749;47.850;9.002;2022-11-15T02:39:07;20.92;;;10.18;;
67965;SDS011;54749;47.850;9.002;2022-11-15T02:42:11;18.75;;;8.32;;
67965;SDS011;54749;47.850;9.002;2022-11-15T02:45:22;19.15;;;8.75;;
67965;SDS011;54749;47.850;9.002;2022-11-15T02:48:12;18.77;;;9.00;;
67965;SDS011;54749;47.850;9.002;2022-11-15T02:50:59;15.90;;;7.17;;
67965;SDS011;54749;47.850;9.002;2022-11-15T02:53:45;16.23;;;8.30;;
67965;SDS011;54749;47.850;9.002;2022-11-15T02:56:31;17.65;;;7.80;;
67965;SDS011;54749;47.850;9.002;2022-11-15T03:09:21;14.23;;;5.30;;
67965;SDS011;54749;47.850;9.002;2022-11-15T03:15:21;13.13;;;6.00;;
67965;SDS011;54749;47.850;9.002;2022-11-15T03:18:18;11.15;;;4.75;;
67965;SDS011;54749;47.850;9.002;2022-11-15T03:21:08;13.20;;;6.70;;
67965;SDS011;54749;47.850;9.002;2022-11-15T03:23:57;14.55;;;6.70;;
67965;SDS011;54749;47.850;9.002;2022-11-15T03:26:43;13.55;;;6.07;;
67965;SDS011;54749;47.850;9.002;2022-11-15T03:29:33;15.15;;;7.30;;
67965;SDS011;54749;47.850;9.002;2022-11-15T03:32:23;15.70;;;7.15;;
67965;SDS011;54749;47.850;9.002;2022-11-15T03:35:14;14.67;;;6.23;;
67965;SDS011;54749;47.850;9.002;2022-11-15T03:41:15;16.05;;;7.53;;
67965;SDS011;54749;47.850;9.002;2022-11-15T03:47:39;15.95;;;8.23;;
67965;SDS011;54749;47.850;9.002;2022-11-15T03:50:28;14.23;;;7.40;;
67965;SDS011;54749;47.850;9.002;2022-11-15T03:53:14;14.52;;;6.90;;
67965;SDS011;54749;47.850;9.002;2022-11-15T03:56:00;12.10;;;5.80;;
67965;SDS011;54749;47.850;9.002;2022-11-15T03:58:45;15.75;;;7.10;;
67965;SDS011;54749;47.850;9.002;2022-11-15T04:01:31;13.07;;;6.35;;
67965;SDS011;54749;47.850;9.002;2022-11-15T04:04:16;13.30;;;6.73;;
67965;SDS011;54749;47.850;9.002;2022-11-15T04:07:02;11.82;;;5.45;;
67965;SDS011;54749;47.850;9.002;2022-11-15T04:09:47;14.20;;;6.20;;
67965;SDS011;54749;47.850;9.002;2022-11-15T04:12:47;15.98;;;7.68;;
67965;SDS011;54749;47.850;9.002;2022-11-15T04:15:32;16.98;;;7.45;;
67965;SDS011;54749;47.850;9.002;2022-11-15T04:18:18;11.03;;;5.33;;
67965;SDS011;54749;47.850;9.002;2022-11-15T04:21:03;15.65;;;5.90;;
67965;SDS011;54749;47.850;9.002;2022-11-15T04:24:08;10.55;;;4.60;;
67965;SDS011;54749;47.850;9.002;2022-11-15T04:26:59;10.60;;;5.47;;
67965;SDS011;54749;47.850;9.002;2022-11-15T04:29:45;10.35;;;5.05;;
67965;SDS011;54749;47.850;9.002;2022-11-15T04:32:30;14.20;;;6.70;;
67965;SDS011;54749;47.850;9.002;2022-11-15T04:35:15;11.55;;;5.38;;
67965;SDS011;54749;47.850;9.002;2022-11-15T04:38:01;11.45;;;5.65;;
67965;SDS011;54749;47.850;9.002;2022-11-15T04:40:48;10.98;;;5.45;;
67965;SDS011;54749;47.850;9.002;2022-11-15T04:43:33;10.85;;;4.75;;
67965;SDS011;54749;47.850;9.002;2022-11-15T04:46:19;10.17;;;4.60;;
67965;SDS011;54749;47.850;9.002;2022-11-15T04:49:04;13.23;;;5.65;;
67965;SDS011;54749;47.850;9.002;2022-11-15T04:51:50;11.10;;;5.03;;
67965;SDS011;54749;47.850;9.002;2022-11-15T04:54:35;10.05;;;4.93;;
67965;SDS011;54749;47.850;9.002;2022-11-15T04:57:20;9.07;;;4.35;;
67965;SDS011;54749;47.850;9.002;2022-11-15T05:00:11;9.23;;;4.30;;
67965;SDS011;54749;47.850;9.002;2022-11-15T05:02:58;9.45;;;4.07;;
67965;SDS011;54749;47.850;9.002;2022-11-15T05:06:01;7.95;;;3.67;;
67965;SDS011;54749;47.850;9.002;2022-11-15T05:08:47;9.75;;;4.70;;
67965;SDS011;54749;47.850;9.002;2022-11-15T05:11:33;10.18;;;4.35;;
67965;SDS011;54749;47.850;9.002;2022-11-15T05:14:18;8.87;;;4.00;;
67965;SDS011;54749;47.850;9.002;2022-11-15T05:17:03;10.07;;;4.22;;
67965;SDS011;54749;47.850;9.002;2022-11-15T05:19:50;10.02;;;4.60;;
67965;SDS011;54749;47.850;9.002;2022-11-15T05:22:36;11.63;;;4.55;;
67965;SDS011;54749;47.850;9.002;2022-11-15T05:25:22;7.65;;;3.25;;
67965;SDS011;54749;47.850;9.002;2022-11-15T05:28:08;7.40;;;3.30;;
67965;SDS011;54749;47.850;9.002;2022-11-15T05:30:59;9.18;;;3.95;;
67965;SDS011;54749;47.850;9.002;2022-11-15T05:33:55;11.43;;;4.80;;
67965;SDS011;54749;47.850;9.002;2022-11-15T05:36:42;16.33;;;6.00;;
67965;SDS011;54749;47.850;9.002;2022-11-15T05:39:28;15.20;;;6.30;;
67965;SDS011;54749;47.850;9.002;2022-11-15T05:42:14;13.70;;;6.23;;
67965;SDS011;54749;47.850;9.002;2022-11-15T05:45:00;10.77;;;4.95;;
67965;SDS011;54749;47.850;9.002;2022-11-15T05:47:49;10.63;;;4.32;;
67965;SDS011;54749;47.850;9.002;2022-11-15T05:50:36;10.00;;;4.40;;
67965;SDS011;54749;47.850;9.002;2022-11-15T05:53:24;9.60;;;4.30;;
67965;SDS011;54749;47.850;9.002;2022-11-15T05:56:11;7.47;;;3.53;;
67965;SDS011;54749;47.850;9.002;2022-11-15T05:58:57;11.77;;;3.97;;
67965;SDS011;54749;47.850;9.002;2022-11-15T06:01:44;8.52;;;3.53;;
67965;SDS011;54749;47.850;9.002;2022-11-15T06:04:30;8.18;;;3.75;;
67965;SDS011;54749;47.850;9.002;2022-11-15T06:07:15;9.63;;;3.90;;
67965;SDS011;54749;47.850;9.002;2022-11-15T06:10:01;7.60;;;3.60;;
67965;SDS011;54749;47.850;9.002;2022-11-15T06:12:46;8.35;;;3.60;;
67965;SDS011;54749;47.850;9.002;2022-11-15T06:15:32;8.20;;;3.42;;
67965;SDS011;54749;47.850;9.002;2022-11-15T06:18:19;17.88;;;7.47;;
67965;SDS011;54749;47.850;9.002;2022-11-15T06:21:04;16.17;;;7.28;;
67965;SDS011;54749;47.850;9.002;2022-11-15T06:23:50;18.50;;;8.13;;
67965;SDS011;54749;47.850;9.002;2022-11-15T06:26:35;20.27;;;8.30;;
67965;SDS011;54749;47.850;9.002;2022-11-15T06:29:20;21.83;;;10.13;;
67965;SDS011;54749;47.850;9.002;2022-11-15T06:32:06;22.67;;;10.30;;
67965;SDS011;54749;47.850;9.002;2022-11-15T06:34:51;21.33;;;9.10;;
67965;SDS011;54749;47.850;9.002;2022-11-15T06:37:37;17.67;;;7.67;;
67965;SDS011;54749;47.850;9.002;2022-11-15T06:40:22;22.70;;;8.10;;
67965;SDS011;54749;47.850;9.002;2022-11-15T06:43:07;19.33;;;7.80;;
67965;SDS011;54749;47.850;9.002;2022-11-15T06:45:53;17.83;;;7.03;;
67965;SDS011;54749;47.850;9.002;2022-11-15T06:48:38;21.90;;;7.93;;
67965;SDS011;54749;47.850;9.002;2022-11-15T06:51:24;28.17;;;10.00;;
67965;SDS011;54749;47.850;9.002;2022-11-15T06:54:09;24.48;;;11.45;;
67965;SDS011;54749;47.850;9.002;2022-11-15T06:56:54;19.88;;;8.25;;
67965;SDS011;54749;47.850;9.002;2022-11-15T06:59:40;17.60;;;8.38;;
67965;SDS011;54749;47.850;9.002;2022-11-15T07:02:26;15.07;;;7.80;;
67965;SDS011;54749;47.850;9.002;2022-11-15T07:05:11;16.57;;;7.40;;
67965;SDS011;54749;47.850;9.002;2022-11-15T07:07:57;17.70;;;7.85;;
67965;SDS011;54749;47.850;9.002;2022-11-15T07:10:44;19.38;;;8.68;;
67965;SDS011;54749;47.850;9.002;2022-11-15T07:13:30;15.60;;;7.63;;
67965;SDS011;54749;47.850;9.002;2022-11-15T07:16:19;14.45;;;6.70;;
67965;SDS011;54749;47.850;9.002;2022-11-15T07:19:04;16.27;;;7.77;;
67965;SDS011;54749;47.850;9.002;2022-11-15T07:21:50;15.65;;;7.20;;
67965;SDS011;54749;47.850;9.002;2022-11-15T07:24:35;14.90;;;7.07;;
67965;SDS011;54749;47.850;9.002;2022-11-15T07:27:20;12.68;;;6.32;;
67965;SDS011;54749;47.850;9.002;2022-11-15T07:30:06;16.52;;;7.88;;
67965;SDS011;54749;47.850;9.002;2022-11-15T07:32:56;15.50;;;7.07;;
67965;SDS011;54749;47.850;9.002;2022-11-15T07:35:45;14.30;;;6.40;;
67965;SDS011;54749;47.850;9.002;2022-11-15T07:38:34;13.25;;;6.15;;
67965;SDS011;54749;47.850;9.002;2022-11-15T07:41:26;16.55;;;5.78;;
67965;SDS011;54749;47.850;9.002;2022-11-15T07:44:12;11.43;;;5.57;;
67965;SDS011;54749;47.850;9.002;2022-11-15T07:46:57;10.63;;;5.30;;
67965;SDS011;54749;47.850;9.002;2022-11-15T07:49:43;12.65;;;5.60;;
67965;SDS011;54749;47.850;9.002;2022-11-15T07:52:28;11.75;;;5.25;;
67965;SDS011;54749;47.850;9.002;2022-11-15T07:55:13;9.30;;;5.07;;
67965;SDS011;54749;47.850;9.002;2022-11-15T07:58:09;9.77;;;5.07;;
67965;SDS011;54749;47.850;9.002;2022-11-15T08:00:56;9.47;;;5.13;;
67965;SDS011;54749;47.850;9.002;2022-11-15T08:03:41;10.68;;;5.03;;
67965;SDS011;54749;47.850;9.002;2022-11-15T08:06:27;9.93;;;4.57;;
67965;SDS011;54749;47.850;9.002;2022-11-15T08:09:12;10.15;;;5.20;;
67965;SDS011;54749;47.850;9.002;2022-11-15T08:11:58;13.50;;;5.30;;
67965;SDS011;54749;47.850;9.002;2022-11-15T08:14:44;10.10;;;5.20;;
67965;SDS011;54749;47.850;9.002;2022-11-15T08:17:29;12.32;;;5.90;;
67965;SDS011;54749;47.850;9.002;2022-11-15T08:20:17;14.85;;;6.05;;
67965;SDS011;54749;47.850;9.002;2022-11-15T08:23:04;14.13;;;6.17;;
67965;SDS011;54749;47.850;9.002;2022-11-15T08:25:50;13.57;;;6.35;;
67965;SDS011;54749;47.850;9.002;2022-11-15T08:28:35;15.60;;;5.90;;
67965;SDS011;54749;47.850;9.002;2022-11-15T08:31:20;13.65;;;6.22;;
67965;SDS011;54749;47.850;9.002;2022-11-15T08:34:06;11.85;;;4.65;;
67965;SDS011;54749;47.850;9.002;2022-11-15T08:36:51;9.93;;;4.55;;
67965;SDS011;54749;47.850;9.002;2022-11-15T08:39:37;9.63;;;4.45;;
67965;SDS011;54749;47.850;9.002;2022-11-15T08:42:22;8.27;;;4.33;;
67965;SDS011;54749;47.850;9.002;2022-11-15T08:45:08;8.60;;;4.47;;
67965;SDS011;54749;47.850;9.002;2022-11-15T08:47:54;10.85;;;5.05;;
67965;SDS011;54749;47.850;9.002;2022-11-15T08:50:39;8.30;;;4.32;;
67965;SDS011;54749;47.850;9.002;2022-11-15T08:53:24;8.80;;;4.32;;
67965;SDS011;54749;47.850;9.002;2022-11-15T08:56:11;8.63;;;4.37;;
67965;SDS011;54749;47.850;9.002;2022-11-15T08:58:58;10.60;;;4.93;;
67965;SDS011;54749;47.850;9.002;2022-11-15T09:01:43;10.55;;;4.65;;
67965;SDS011;54749;47.850;9.002;2022-11-15T09:04:29;6.80;;;3.95;;
67965;SDS011;54749;47.850;9.002;2022-11-15T09:07:15;9.57;;;5.40;;
67965;SDS011;54749;47.850;9.002;2022-11-15T09:10:01;9.77;;;5.13;;
67965;SDS011;54749;47.850;9.002;2022-11-15T09:12:47;9.82;;;4.20;;
67965;SDS011;54749;47.850;9.002;2022-11-15T09:15:35;10.57;;;4.63;;
67965;SDS011;54749;47.850;9.002;2022-11-15T09:18:20;9.13;;;4.57;;
67965;SDS011;54749;47.850;9.002;2022-11-15T09:21:07;9.27;;;5.35;;
67965;SDS011;54749;47.850;9.002;2022-11-15T09:23:53;15.17;;;9.13;;
67965;SDS011;54749;47.850;9.002;2022-11-15T09:26:39;11.80;;;9.32;;
67965;SDS011;54749;47.850;9.002;2022-11-15T09:29:25;16.27;;;12.48;;
67965;SDS011;54749;47.850;9.002;2022-11-15T09:32:10;14.48;;;11.85;;
67965;SDS011;54749;47.850;9.002;2022-11-15T09:34:56;15.57;;;13.38;;
67965;SDS011;54749;47.850;9.002;2022-11-15T09:37:42;26.20;;;22.13;;
67965;SDS011;54749;47.850;9.002;2022-11-15T09:40:29;17.75;;;15.55;;
67965;SDS011;54749;47.850;9.002;2022-11-15T09:49:14;17.40;;;14.93;;
67965;SDS011;54749;47.850;9.002;2022-11-15T09:52:03;21.93;;;16.37;;
67965;SDS011;54749;47.850;9.002;2022-11-15T09:54:34;22.63;;;18.67;;
67965;SDS011;54749;47.850;9.002;2022-11-15T10:05:28;19.27;;;13.83;;
67965;SDS011;54749;47.850;9.002;2022-11-15T10:10:56;19.00;;;14.85;;
67965;SDS011;54749;47.850;9.002;2022-11-15T10:13:45;22.08;;;16.08;;
67965;SDS011;54749;47.850;9.002;2022-11-15T10:19:00;11.33;;;7.83;;
67965;SDS011;54749;47.850;9.002;2022-11-15T10:24:33;12.82;;;7.28;;
67965;SDS011;54749;47.850;9.002;2022-11-15T10:27:04;12.98;;;8.25;;
67965;SDS011;54749;47.850;9.002;2022-11-15T10:32:36;12.70;;;7.50;;
67965;SDS011;54749;47.850;9.002;2022-11-15T10:35:15;12.63;;;7.90;;
67965;SDS011;54749;47.850;9.002;2022-11-15T10:37:50;16.80;;;9.70;;
67965;SDS011;54749;47.850;9.002;2022-11-15T10:40:18;17.65;;;10.23;;
67965;SDS011;54749;47.850;9.002;2022-11-15T10:42:48;15.20;;;9.52;;
67965;SDS011;54749;47.850;9.002;2022-11-15T10:45:31;13.90;;;8.23;;
67965;SDS011;54749;47.850;9.002;2022-11-15T10:50:39;12.30;;;7.40;;
67965;SDS011;54749;47.850;9.002;2022-11-15T10:53:25;12.55;;;6.78;;
67965;SDS011;54749;47.850;9.002;2022-11-15T10:55:59;16.05;;;7.55;;
67965;SDS011;54749;47.850;9.002;2022-11-15T11:04:01;13.52;;;6.90;;
67965;SDS011;54749;47.850;9.002;2022-11-15T11:06:29;13.60;;;7.03;;
67965;SDS011;54749;47.850;9.002;2022-11-15T11:09:04;18.58;;;11.65;;
67965;SDS011;54749;47.850;9.002;2022-11-15T11:11:46;15.27;;;9.05;;
67965;SDS011;54749;47.850;9.002;2022-11-15T11:14:20;16.17;;;6.57;;
67965;SDS011;54749;47.850;9.002;2022-11-15T11:17:32;16.20;;;6.27;;
67965;SDS011;54749;47.850;9.002;2022-11-15T11:20:15;10.98;;;5.97;;
67965;SDS011;54749;47.850;9.002;2022-11-15T11:25:48;15.30;;;6.90;;
67965;SDS011;54749;47.850;9.002;2022-11-15T11:37:34;17.40;;;8.77;;
67965;SDS011;54749;47.850;9.002;2022-11-15T11:43:03;14.55;;;7.38;;
67965;SDS011;54749;47.850;9.002;2022-11-15T11:49:08;16.37;;;9.60;;
67965;SDS011;54749;47.850;9.002;2022-11-15T11:51:48;16.63;;;9.93;;
67965;SDS011;54749;47.850;9.002;2022-11-15T11:54:22;15.88;;;8.43;;
67965;SDS011;54749;47.850;9.002;2022-11-15T11:56:57;13.10;;;7.45;;
67965;SDS011;54749;47.850;9.002;2022-11-15T12:02:18;19.70;;;11.20;;
67965;SDS011;54749;47.850;9.002;2022-11-15T12:05:08;19.65;;;10.07;;
67965;SDS011;54749;47.850;9.002;2022-11-15T12:07:38;20.27;;;9.57;;
67965;SDS011;54749;47.850;9.002;2022-11-15T12:10:22;18.27;;;8.40;;
67965;SDS011;54749;47.850;9.002;2022-11-15T12:15:32;26.73;;;15.67;;
67965;SDS011;54749;47.850;9.002;2022-11-15T12:18:07;29.20;;;16.92;;
67965;SDS011;54749;47.850;9.002;2022-11-15T12:20:39;38.60;;;24.17;;
67965;SDS011;54749;47.850;9.002;2022-11-15T12:28:27;28.63;;;16.80;;
67965;SDS011;54749;47.850;9.002;2022-11-15T12:31:12;24.60;;;11.70;;
67965;SDS011;54749;47.850;9.002;2022-11-15T12:33:44;16.77;;;8.40;;
67965;SDS011;54749;47.850;9.002;2022-11-15T12:41:27;22.07;;;11.57;;
67965;SDS011;54749;47.850;9.002;2022-11-15T13:02:19;17.75;;;8.20;;
67965;SDS011;54749;47.850;9.002;2022-11-15T13:04:48;11.20;;;5.00;;
67965;SDS011;54749;47.850;9.002;2022-11-15T13:07:54;9.40;;;4.43;;
67965;SDS011;54749;47.850;9.002;2022-11-15T13:12:55;9.20;;;4.10;;
67965;SDS011;54749;47.850;9.002;2022-11-15T13:15:45;11.20;;;4.72;;
67965;SDS011;54749;47.850;9.002;2022-11-15T13:21:19;11.90;;;5.13;;
67965;SDS011;54749;47.850;9.002;2022-11-15T13:24:10;10.70;;;4.50;;
67965;SDS011;54749;47.850;9.002;2022-11-15T13:26:40;12.88;;;5.45;;
67965;SDS011;54749;47.850;9.002;2022-11-15T13:29:17;10.57;;;5.00;;
67965;SDS011;54749;47.850;9.002;2022-11-15T13:31:45;11.82;;;5.30;;
67965;SDS011;54749;47.850;9.002;2022-11-15T13:37:27;10.98;;;5.03;;
67965;SDS011;54749;47.850;9.002;2022-11-15T13:40:09;10.38;;;5.47;;
67965;SDS011;54749;47.850;9.002;2022-11-15T13:42:42;9.35;;;5.10;;
67965;SDS011;54749;47.850;9.002;2022-11-15T13:45:13;11.73;;;5.15;;
67965;SDS011;54749;47.850;9.002;2022-11-15T13:47:42;10.40;;;4.87;;
67965;SDS011;54749;47.850;9.002;2022-11-15T13:50:12;9.30;;;5.10;;
67965;SDS011;54749;47.850;9.002;2022-11-15T13:52:40;10.93;;;5.50;;
67965;SDS011;54749;47.850;9.002;2022-11-15T13:55:17;11.63;;;5.82;;
67965;SDS011;54749;47.850;9.002;2022-11-15T13:57:48;10.88;;;5.57;;
67965;SDS011;54749;47.850;9.002;2022-11-15T14:00:24;14.85;;;7.50;;
67965;SDS011;54749;47.850;9.002;2022-11-15T14:03:05;13.57;;;6.17;;
67965;SDS011;54749;47.850;9.002;2022-11-15T14:05:34;11.73;;;5.72;;
67965;SDS011;54749;47.850;9.002;2022-11-15T14:10:46;12.65;;;5.95;;
67965;SDS011;54749;47.850;9.002;2022-11-15T14:14:02;10.85;;;5.50;;
67965;SDS011;54749;47.850;9.002;2022-11-15T14:18:49;11.10;;;5.78;;
67965;SDS011;54749;47.850;9.002;2022-11-15T14:21:17;10.00;;;5.05;;
67965;SDS011;54749;47.850;9.002;2022-11-15T14:23:45;11.35;;;5.07;;
67965;SDS011;54749;47.850;9.002;2022-11-15T14:29:22;11.83;;;5.67;;
67965;SDS011;54749;47.850;9.002;2022-11-15T14:32:05;11.30;;;5.45;;
67965;SDS011;54749;47.850;9.002;2022-11-15T14:34:40;12.00;;;5.70;;
67965;SDS011;54749;47.850;9.002;2022-11-15T14:40:04;11.15;;;5.60;;
67965;SDS011;54749;47.850;9.002;2022-11-15T14:42:32;11.47;;;6.00;;
67965;SDS011;54749;47.850;9.002;2022-11-15T14:44:59;10.73;;;5.47;;
67965;SDS011;54749;47.850;9.002;2022-11-15T14:47:26;10.88;;;5.55;;
67965;SDS011;54749;47.850;9.002;2022-11-15T14:49:52;11.73;;;5.63;;
67965;SDS011;54749;47.850;9.002;2022-11-15T14:55:00;10.37;;;5.53;;
67965;SDS011;54749;47.850;9.002;2022-11-15T14:57:29;12.27;;;6.03;;
67965;SDS011;54749;47.850;9.002;2022-11-15T14:59:56;14.40;;;7.25;;
67965;SDS011;54749;47.850;9.002;2022-11-15T15:02:37;13.48;;;6.43;;
67965;SDS011;54749;47.850;9.002;2022-11-15T15:05:12;16.27;;;7.70;;
67965;SDS011;54749;47.850;9.002;2022-11-15T15:07:41;14.97;;;7.00;;
67965;SDS011;54749;47.850;9.002;2022-11-15T15:10:09;14.23;;;7.00;;
67965;SDS011;54749;47.850;9.002;2022-11-15T15:12:56;13.45;;;6.55;;
67965;SDS011;54749;47.850;9.002;2022-11-15T15:15:31;13.55;;;7.68;;
67965;SDS011;54749;47.850;9.002;2022-11-15T15:18:00;14.10;;;7.53;;
67965;SDS011;54749;47.850;9.002;2022-11-15T15:20:28;12.80;;;6.77;;
67965;SDS011;54749;47.850;9.002;2022-11-15T15:22:55;22.08;;;11.55;;
67965;SDS011;54749;47.850;9.002;2022-11-15T15:27:53;17.63;;;8.00;;
67965;SDS011;54749;47.850;9.002;2022-11-15T15:30:22;17.10;;;8.55;;
67965;SDS011;54749;47.850;9.002;2022-11-15T15:32:49;17.20;;;7.47;;
67965;SDS011;54749;47.850;9.002;2022-11-15T15:35:17;16.70;;;7.68;;
67965;SDS011;54749;47.850;9.002;2022-11-15T15:37:45;14.43;;;7.30;;
67965;SDS011;54749;47.850;9.002;2022-11-15T15:40:14;14.93;;;6.63;;
67965;SDS011;54749;47.850;9.002;2022-11-15T15:42:48;11.45;;;5.38;;
67965;SDS011;54749;47.850;9.002;2022-11-15T15:45:16;11.57;;;6.03;;
67965;SDS011;54749;47.850;9.002;2022-11-15T15:47:44;11.77;;;6.03;;
67965;SDS011;54749;47.850;9.002;2022-11-15T15:53:02;14.07;;;6.13;;
67965;SDS011;54749;47.850;9.002;2022-11-15T15:55:30;13.45;;;7.00;;
67965;SDS011;54749;47.850;9.002;2022-11-15T15:57:57;13.67;;;6.97;;
67965;SDS011;54749;47.850;9.002;2022-11-15T16:00:24;16.95;;;8.00;;
67965;SDS011;54749;47.850;9.002;2022-11-15T16:02:53;12.88;;;6.38;;
67965;SDS011;54749;47.850;9.002;2022-11-15T16:05:21;13.30;;;6.80;;
67965;SDS011;54749;47.850;9.002;2022-11-15T16:07:48;12.02;;;6.47;;
67965;SDS011;54749;47.850;9.002;2022-11-15T16:10:29;13.63;;;6.77;;
67965;SDS011;54749;47.850;9.002;2022-11-15T16:12:57;13.23;;;6.97;;
67965;SDS011;54749;47.850;9.002;2022-11-15T16:15:25;11.70;;;6.22;;
67965;SDS011;54749;47.850;9.002;2022-11-15T16:17:55;11.68;;;5.85;;
67965;SDS011;54749;47.850;9.002;2022-11-15T16:20:28;11.68;;;5.78;;
67965;SDS011;54749;47.850;9.002;2022-11-15T16:22:58;11.17;;;5.43;;
67965;SDS011;54749;47.850;9.002;2022-11-15T16:25:51;19.88;;;9.80;;
67965;SDS011;54749;47.850;9.002;2022-11-15T16:30:58;18.52;;;9.00;;
67965;SDS011;54749;47.850;9.002;2022-11-15T16:33:26;16.95;;;8.70;;
67965;SDS011;54749;47.850;9.002;2022-11-15T16:35:53;14.43;;;6.83;;
67965;SDS011;54749;47.850;9.002;2022-11-15T16:38:20;13.73;;;6.60;;
67965;SDS011;54749;47.850;9.002;2022-11-15T16:40:47;13.55;;;7.18;;
67965;SDS011;54749;47.850;9.002;2022-11-15T16:43:14;14.10;;;7.05;;
67965;SDS011;54749;47.850;9.002;2022-11-15T16:45:41;14.50;;;6.82;;
67965;SDS011;54749;47.850;9.002;2022-11-15T16:48:15;19.93;;;9.97;;
67965;SDS011;54749;47.850;9.002;2022-11-15T16:50:47;23.25;;;9.38;;
67965;SDS011;54749;47.850;9.002;2022-11-15T16:53:14;16.55;;;9.10;;
67965;SDS011;54749;47.850;9.002;2022-11-15T16:55:41;15.80;;;7.75;;
67965;SDS011;54749;47.850;9.002;2022-11-15T16:58:08;12.38;;;5.93;;
67965;SDS011;54749;47.850;9.002;2022-11-15T17:00:36;15.80;;;7.13;;
67965;SDS011;54749;47.850;9.002;2022-11-15T17:03:02;17.17;;;7.50;;
67965;SDS011;54749;47.850;9.002;2022-11-15T17:05:30;15.18;;;7.82;;
67965;SDS011;54749;47.850;9.002;2022-11-15T17:07:57;17.08;;;8.68;;
67965;SDS011;54749;47.850;9.002;2022-11-15T17:10:25;16.23;;;7.88;;
67965;SDS011;54749;47.850;9.002;2022-11-15T17:12:53;18.77;;;9.13;;
67965;SDS011;54749;47.850;9.002;2022-11-15T17:15:21;18.47;;;8.60;;
67965;SDS011;54749;47.850;9.002;2022-11-15T17:17:50;21.60;;;10.10;;
67965;SDS011;54749;47.850;9.002;2022-11-15T17:20:20;22.80;;;12.00;;
67965;SDS011;54749;47.850;9.002;2022-11-15T17:22:48;30.30;;;14.77;;
67965;SDS011;54749;47.850;9.002;2022-11-15T17:25:16;22.73;;;11.35;;
67965;SDS011;54749;47.850;9.002;2022-11-15T17:27:43;18.03;;;8.80;;
67965;SDS011;54749;47.850;9.002;2022-11-15T17:30:11;17.33;;;8.93;;
67965;SDS011;54749;47.850;9.002;2022-11-15T17:32:40;15.55;;;8.25;;
67965;SDS011;54749;47.850;9.002;2022-11-15T17:35:09;19.05;;;8.43;;
67965;SDS011;54749;47.850;9.002;2022-11-15T17:37:41;15.57;;;8.15;;
67965;SDS011;54749;47.850;9.002;2022-11-15T17:40:08;13.17;;;6.40;;
67965;SDS011;54749;47.850;9.002;2022-11-15T17:42:35;13.00;;;6.13;;
67965;SDS011;54749;47.850;9.002;2022-11-15T17:45:03;15.10;;;7.07;;
67965;SDS011;54749;47.850;9.002;2022-11-15T17:47:35;11.65;;;5.65;;
67965;SDS011;54749;47.850;9.002;2022-11-15T17:50:03;9.68;;;4.80;;
67965;SDS011;54749;47.850;9.002;2022-11-15T17:52:30;16.93;;;7.53;;
67965;SDS011;54749;47.850;9.002;2022-11-15T17:54:57;19.50;;;9.43;;
67965;SDS011;54749;47.850;9.002;2022-11-15T17:57:23;17.75;;;8.65;;
67965;SDS011;54749;47.850;9.002;2022-11-15T17:59:50;16.77;;;8.00;;
67965;SDS011;54749;47.850;9.002;2022-11-15T18:02:17;16.80;;;7.97;;
67965;SDS011;54749;47.850;9.002;2022-11-15T18:04:45;16.97;;;8.23;;
67965;SDS011;54749;47.850;9.002;2022-11-15T18:07:12;16.95;;;8.63;;
67965;SDS011;54749;47.850;9.002;2022-11-15T18:09:40;14.95;;;8.35;;
67965;SDS011;54749;47.850;9.002;2022-11-15T18:12:10;14.98;;;7.35;;
67965;SDS011;54749;47.850;9.002;2022-11-15T18:14:37;12.90;;;6.82;;
67965;SDS011;54749;47.850;9.002;2022-11-15T18:17:04;16.67;;;8.47;;
67965;SDS011;54749;47.850;9.002;2022-11-15T18:19:31;17.50;;;7.72;;
67965;SDS011;54749;47.850;9.002;2022-11-15T18:21:59;16.73;;;8.13;;
67965;SDS011;54749;47.850;9.002;2022-11-15T18:26:55;18.23;;;8.60;;
67965;SDS011;54749;47.850;9.002;2022-11-15T18:29:23;21.77;;;9.70;;